Strona główna
METAR-TAF:

METAR-TAF

Lotnisko :

Port lotniczy Lublin

Lublin, Polska

Szerokość geograficzna: 51-13-55N, Długość geograficzna: 22-41-25E, wysokość: 203 m

Aktualna obserwacja pogody

Raport powstał 31 minut temu, godzina 09:30 UTC
Wiatr 6 kt od wschód
Temperatura 27°C
Wilgotność 51%
Ciśnienie 1019 hPa
Widzialność 10 km lub więcej
Mało chmury na wysokości 4200 ft, Cumulusy wypiętrznone.

METAR: EPLB 180930Z 09006KT 9999 FEW042TCU 27/16 Q1019

czas: 12:01 (10:01 UTC)

Prognoza

Raport powstał 1 godzina i 31 minut temu, godzina 08:30 UTC
Prognoza ważna od 18 godzina 09 UTC do 18 godzina 18 UTC
Wiatr 5 kt od północno-północny wschód
Widzialność 10 km lub więcej
Brak chmur poniżej 1500 m i brak chmur cumulonimbus

TAF: EPLB 180830Z 1809/1818 02005KT CAVOK

Obserwacja i prognoza pogody dla ponad 4000 lotnisk (raport METAR i TAF).

Dostępne stacje oznaczono żółtymi i czerwonymi punktami na mapie.

Najedź kursorem aby zobaczyć nazwę stacji.

Kliknij aby zobaczyć obserwacje i prognozy pogody.

Aby zmienić mapę: kliknij na zielony przycisk z czarnym krzyżykiem, aby powiększyć; na zielony przycisk z myślnikiem, aby pomniejszyć; na zielone strzałki, aby przejść do map sąsiednich.


METAR-TAF: